sensor_id;sensor_type;location;lat;lon;timestamp;P1;durP1;ratioP1;P2;durP2;ratioP2
28437;SDS011;15667;52.376;9.708;2023-03-03T00:00:55;41.60;;;13.35;;
28437;SDS011;15667;52.376;9.708;2023-03-03T00:03:22;45.30;;;13.45;;
28437;SDS011;15667;52.376;9.708;2023-03-03T00:05:49;41.20;;;13.85;;
28437;SDS011;15667;52.376;9.708;2023-03-03T00:08:16;39.35;;;13.30;;
28437;SDS011;15667;52.376;9.708;2023-03-03T00:10:43;43.75;;;13.52;;
28437;SDS011;15667;52.376;9.708;2023-03-03T00:13:19;40.65;;;13.52;;
28437;SDS011;15667;52.376;9.708;2023-03-03T00:15:47;44.55;;;14.52;;
28437;SDS011;15667;52.376;9.708;2023-03-03T00:18:17;43.17;;;13.77;;
28437;SDS011;15667;52.376;9.708;2023-03-03T00:21:00;36.58;;;13.23;;
28437;SDS011;15667;52.376;9.708;2023-03-03T00:23:29;37.25;;;13.07;;
28437;SDS011;15667;52.376;9.708;2023-03-03T00:25:55;43.53;;;13.38;;
28437;SDS011;15667;52.376;9.708;2023-03-03T00:28:29;43.90;;;12.73;;
28437;SDS011;15667;52.376;9.708;2023-03-03T00:31:24;41.10;;;13.30;;
28437;SDS011;15667;52.376;9.708;2023-03-03T00:33:55;37.70;;;12.18;;
28437;SDS011;15667;52.376;9.708;2023-03-03T00:36:24;38.88;;;12.88;;
28437;SDS011;15667;52.376;9.708;2023-03-03T00:38:56;40.78;;;12.73;;
28437;SDS011;15667;52.376;9.708;2023-03-03T00:41:41;35.33;;;12.18;;
28437;SDS011;15667;52.376;9.708;2023-03-03T00:47:24;39.85;;;12.50;;
28437;SDS011;15667;52.376;9.708;2023-03-03T00:49:53;35.92;;;11.70;;
28437;SDS011;15667;52.376;9.708;2023-03-03T00:52:40;35.05;;;11.73;;
28437;SDS011;15667;52.376;9.708;2023-03-03T00:55:10;36.35;;;11.73;;
28437;SDS011;15667;52.376;9.708;2023-03-03T00:57:36;34.33;;;11.45;;
28437;SDS011;15667;52.376;9.708;2023-03-03T01:00:03;34.25;;;11.65;;
28437;SDS011;15667;52.376;9.708;2023-03-03T01:02:29;36.10;;;12.18;;
28437;SDS011;15667;52.376;9.708;2023-03-03T01:04:55;34.55;;;11.50;;
28437;SDS011;15667;52.376;9.708;2023-03-03T01:07:21;33.58;;;11.88;;
28437;SDS011;15667;52.376;9.708;2023-03-03T01:09:47;38.55;;;12.27;;
28437;SDS011;15667;52.376;9.708;2023-03-03T01:12:13;34.15;;;11.82;;
28437;SDS011;15667;52.376;9.708;2023-03-03T01:14:39;36.13;;;11.70;;
28437;SDS011;15667;52.376;9.708;2023-03-03T01:17:05;37.08;;;11.63;;
28437;SDS011;15667;52.376;9.708;2023-03-03T01:19:31;35.83;;;13.05;;
28437;SDS011;15667;52.376;9.708;2023-03-03T01:21:57;38.70;;;12.82;;
28437;SDS011;15667;52.376;9.708;2023-03-03T01:24:23;31.83;;;11.98;;
28437;SDS011;15667;52.376;9.708;2023-03-03T01:26:49;37.85;;;12.55;;
28437;SDS011;15667;52.376;9.708;2023-03-03T01:29:14;38.78;;;12.88;;
28437;SDS011;15667;52.376;9.708;2023-03-03T01:31:40;36.33;;;12.23;;
28437;SDS011;15667;52.376;9.708;2023-03-03T01:34:06;36.65;;;12.25;;
28437;SDS011;15667;52.376;9.708;2023-03-03T01:36:32;31.05;;;11.40;;
28437;SDS011;15667;52.376;9.708;2023-03-03T01:38:58;36.70;;;12.02;;
28437;SDS011;15667;52.376;9.708;2023-03-03T01:41:28;31.10;;;11.48;;
28437;SDS011;15667;52.376;9.708;2023-03-03T01:43:57;38.10;;;12.18;;
28437;SDS011;15667;52.376;9.708;2023-03-03T01:49:12;38.13;;;13.05;;
28437;SDS011;15667;52.376;9.708;2023-03-03T01:52:00;40.42;;;12.13;;
28437;SDS011;15667;52.376;9.708;2023-03-03T01:54:37;35.08;;;11.45;;
28437;SDS011;15667;52.376;9.708;2023-03-03T01:59:35;33.70;;;10.90;;
28437;SDS011;15667;52.376;9.708;2023-03-03T02:02:04;34.15;;;12.77;;
28437;SDS011;15667;52.376;9.708;2023-03-03T02:04:31;41.53;;;13.13;;
28437;SDS011;15667;52.376;9.708;2023-03-03T02:07:00;41.42;;;12.80;;
28437;SDS011;15667;52.376;9.708;2023-03-03T02:12:00;38.55;;;12.52;;
28437;SDS011;15667;52.376;9.708;2023-03-03T02:14:29;37.05;;;13.10;;
28437;SDS011;15667;52.376;9.708;2023-03-03T02:16:55;35.22;;;12.18;;
28437;SDS011;15667;52.376;9.708;2023-03-03T02:19:24;40.05;;;12.93;;
28437;SDS011;15667;52.376;9.708;2023-03-03T02:22:01;35.78;;;12.32;;
28437;SDS011;15667;52.376;9.708;2023-03-03T02:24:31;38.08;;;12.35;;
28437;SDS011;15667;52.376;9.708;2023-03-03T02:27:09;33.55;;;11.23;;
28437;SDS011;15667;52.376;9.708;2023-03-03T02:29:35;33.78;;;11.20;;
28437;SDS011;15667;52.376;9.708;2023-03-03T02:32:00;37.30;;;11.32;;
28437;SDS011;15667;52.376;9.708;2023-03-03T02:34:26;32.65;;;10.98;;
28437;SDS011;15667;52.376;9.708;2023-03-03T02:36:52;34.55;;;11.75;;
28437;SDS011;15667;52.376;9.708;2023-03-03T02:44:37;39.53;;;12.70;;
28437;SDS011;15667;52.376;9.708;2023-03-03T02:47:03;35.35;;;11.77;;
28437;SDS011;15667;52.376;9.708;2023-03-03T02:49:30;34.92;;;12.45;;
28437;SDS011;15667;52.376;9.708;2023-03-03T02:51:58;40.45;;;12.52;;
28437;SDS011;15667;52.376;9.708;2023-03-03T02:54:25;35.05;;;11.75;;
28437;SDS011;15667;52.376;9.708;2023-03-03T02:56:54;31.55;;;11.10;;
28437;SDS011;15667;52.376;9.708;2023-03-03T02:59:19;31.80;;;12.13;;
28437;SDS011;15667;52.376;9.708;2023-03-03T03:01:45;38.22;;;13.00;;
28437;SDS011;15667;52.376;9.708;2023-03-03T03:04:12;38.20;;;12.10;;
28437;SDS011;15667;52.376;9.708;2023-03-03T03:06:42;40.95;;;13.30;;
28437;SDS011;15667;52.376;9.708;2023-03-03T03:09:09;34.25;;;12.18;;
28437;SDS011;15667;52.376;9.708;2023-03-03T03:11:35;33.17;;;11.63;;
28437;SDS011;15667;52.376;9.708;2023-03-03T03:14:02;36.67;;;12.63;;
28437;SDS011;15667;52.376;9.708;2023-03-03T03:16:30;33.28;;;12.00;;
28437;SDS011;15667;52.376;9.708;2023-03-03T03:18:56;28.30;;;11.05;;
28437;SDS011;15667;52.376;9.708;2023-03-03T03:21:22;37.08;;;11.95;;
28437;SDS011;15667;52.376;9.708;2023-03-03T03:23:48;37.55;;;12.52;;
28437;SDS011;15667;52.376;9.708;2023-03-03T03:26:13;38.13;;;12.15;;
28437;SDS011;15667;52.376;9.708;2023-03-03T03:28:39;33.40;;;11.38;;
28437;SDS011;15667;52.376;9.708;2023-03-03T03:31:05;31.75;;;12.18;;
28437;SDS011;15667;52.376;9.708;2023-03-03T03:33:32;37.35;;;11.55;;
28437;SDS011;15667;52.376;9.708;2023-03-03T03:35:58;35.75;;;11.02;;
28437;SDS011;15667;52.376;9.708;2023-03-03T03:38:24;35.55;;;11.60;;
28437;SDS011;15667;52.376;9.708;2023-03-03T03:40:51;40.13;;;12.45;;
28437;SDS011;15667;52.376;9.708;2023-03-03T03:43:20;36.13;;;11.43;;
28437;SDS011;15667;52.376;9.708;2023-03-03T03:45:46;36.42;;;12.02;;
28437;SDS011;15667;52.376;9.708;2023-03-03T03:48:12;34.85;;;11.57;;
28437;SDS011;15667;52.376;9.708;2023-03-03T03:50:38;38.65;;;12.57;;
28437;SDS011;15667;52.376;9.708;2023-03-03T03:53:04;32.95;;;11.43;;
28437;SDS011;15667;52.376;9.708;2023-03-03T03:55:30;39.50;;;12.90;;
28437;SDS011;15667;52.376;9.708;2023-03-03T03:57:56;35.88;;;12.25;;
28437;SDS011;15667;52.376;9.708;2023-03-03T04:00:22;35.15;;;12.48;;
28437;SDS011;15667;52.376;9.708;2023-03-03T04:02:49;39.75;;;12.52;;
28437;SDS011;15667;52.376;9.708;2023-03-03T04:05:14;39.85;;;12.95;;
28437;SDS011;15667;52.376;9.708;2023-03-03T04:07:40;39.60;;;13.13;;
28437;SDS011;15667;52.376;9.708;2023-03-03T04:10:06;35.83;;;12.30;;
28437;SDS011;15667;52.376;9.708;2023-03-03T04:12:33;40.63;;;13.07;;
28437;SDS011;15667;52.376;9.708;2023-03-03T04:15:12;40.70;;;13.68;;
28437;SDS011;15667;52.376;9.708;2023-03-03T04:17:39;34.22;;;12.10;;
28437;SDS011;15667;52.376;9.708;2023-03-03T04:20:05;38.67;;;12.75;;
28437;SDS011;15667;52.376;9.708;2023-03-03T04:22:32;40.50;;;12.10;;
28437;SDS011;15667;52.376;9.708;2023-03-03T04:24:59;37.85;;;12.98;;
28437;SDS011;15667;52.376;9.708;2023-03-03T04:27:29;38.65;;;11.82;;
28437;SDS011;15667;52.376;9.708;2023-03-03T04:30:01;40.47;;;12.60;;
28437;SDS011;15667;52.376;9.708;2023-03-03T04:32:29;40.45;;;12.52;;
28437;SDS011;15667;52.376;9.708;2023-03-03T04:34:55;42.60;;;13.27;;
28437;SDS011;15667;52.376;9.708;2023-03-03T04:37:21;43.33;;;13.10;;
28437;SDS011;15667;52.376;9.708;2023-03-03T04:39:46;38.47;;;12.75;;
28437;SDS011;15667;52.376;9.708;2023-03-03T04:42:12;46.10;;;14.02;;
28437;SDS011;15667;52.376;9.708;2023-03-03T04:44:38;35.97;;;13.48;;
28437;SDS011;15667;52.376;9.708;2023-03-03T04:47:04;39.55;;;12.75;;
28437;SDS011;15667;52.376;9.708;2023-03-03T04:49:29;45.88;;;14.63;;
28437;SDS011;15667;52.376;9.708;2023-03-03T04:51:55;39.65;;;12.52;;
28437;SDS011;15667;52.376;9.708;2023-03-03T04:54:21;44.40;;;13.98;;
28437;SDS011;15667;52.376;9.708;2023-03-03T04:56:47;45.92;;;13.93;;
28437;SDS011;15667;52.376;9.708;2023-03-03T04:59:13;40.97;;;13.90;;
28437;SDS011;15667;52.376;9.708;2023-03-03T05:01:39;40.05;;;13.95;;
28437;SDS011;15667;52.376;9.708;2023-03-03T05:04:06;47.40;;;14.10;;
28437;SDS011;15667;52.376;9.708;2023-03-03T05:06:32;47.53;;;15.23;;
28437;SDS011;15667;52.376;9.708;2023-03-03T05:08:58;44.55;;;13.25;;
28437;SDS011;15667;52.376;9.708;2023-03-03T05:11:23;43.92;;;14.55;;
28437;SDS011;15667;52.376;9.708;2023-03-03T05:13:49;41.60;;;12.82;;
28437;SDS011;15667;52.376;9.708;2023-03-03T05:16:15;44.47;;;13.85;;
28437;SDS011;15667;52.376;9.708;2023-03-03T05:18:41;39.53;;;14.65;;
28437;SDS011;15667;52.376;9.708;2023-03-03T05:21:06;44.22;;;13.60;;
28437;SDS011;15667;52.376;9.708;2023-03-03T05:23:32;39.05;;;13.43;;
28437;SDS011;15667;52.376;9.708;2023-03-03T05:25:58;40.28;;;13.13;;
28437;SDS011;15667;52.376;9.708;2023-03-03T05:28:23;41.05;;;13.30;;
28437;SDS011;15667;52.376;9.708;2023-03-03T05:30:49;39.47;;;13.73;;
28437;SDS011;15667;52.376;9.708;2023-03-03T05:33:15;38.30;;;13.43;;
28437;SDS011;15667;52.376;9.708;2023-03-03T05:35:42;39.92;;;13.48;;
28437;SDS011;15667;52.376;9.708;2023-03-03T05:38:08;47.08;;;14.43;;
28437;SDS011;15667;52.376;9.708;2023-03-03T05:40:33;41.88;;;13.77;;
28437;SDS011;15667;52.376;9.708;2023-03-03T05:42:59;230.13;;;79.53;;
28437;SDS011;15667;52.376;9.708;2023-03-03T05:45:25;232.10;;;80.30;;
28437;SDS011;15667;52.376;9.708;2023-03-03T05:47:51;141.57;;;46.85;;
28437;SDS011;15667;52.376;9.708;2023-03-03T05:50:18;76.85;;;26.55;;
28437;SDS011;15667;52.376;9.708;2023-03-03T05:52:46;41.95;;;14.43;;
28437;SDS011;15667;52.376;9.708;2023-03-03T05:55:13;40.30;;;13.10;;
28437;SDS011;15667;52.376;9.708;2023-03-03T05:57:39;39.08;;;13.45;;
28437;SDS011;15667;52.376;9.708;2023-03-03T06:00:05;41.22;;;13.55;;
28437;SDS011;15667;52.376;9.708;2023-03-03T06:02:32;46.70;;;14.07;;
28437;SDS011;15667;52.376;9.708;2023-03-03T06:04:58;39.53;;;14.10;;
28437;SDS011;15667;52.376;9.708;2023-03-03T06:07:24;42.92;;;14.18;;
28437;SDS011;15667;52.376;9.708;2023-03-03T06:09:50;44.85;;;15.23;;
28437;SDS011;15667;52.376;9.708;2023-03-03T06:12:16;46.28;;;15.55;;
28437;SDS011;15667;52.376;9.708;2023-03-03T06:14:42;46.25;;;15.60;;
28437;SDS011;15667;52.376;9.708;2023-03-03T06:17:08;47.60;;;15.27;;
28437;SDS011;15667;52.376;9.708;2023-03-03T06:19:34;47.20;;;16.65;;
28437;SDS011;15667;52.376;9.708;2023-03-03T06:22:01;52.97;;;16.45;;
28437;SDS011;15667;52.376;9.708;2023-03-03T06:24:27;49.97;;;16.80;;
28437;SDS011;15667;52.376;9.708;2023-03-03T06:26:58;50.45;;;16.88;;
28437;SDS011;15667;52.376;9.708;2023-03-03T06:29:25;49.75;;;17.85;;
28437;SDS011;15667;52.376;9.708;2023-03-03T06:31:51;47.72;;;15.48;;
28437;SDS011;15667;52.376;9.708;2023-03-03T06:34:17;43.55;;;15.43;;
28437;SDS011;15667;52.376;9.708;2023-03-03T06:36:43;46.33;;;15.25;;
28437;SDS011;15667;52.376;9.708;2023-03-03T06:39:08;49.78;;;16.45;;
28437;SDS011;15667;52.376;9.708;2023-03-03T06:41:34;42.83;;;15.07;;
28437;SDS011;15667;52.376;9.708;2023-03-03T06:44:00;46.20;;;15.15;;
28437;SDS011;15667;52.376;9.708;2023-03-03T06:46:26;45.97;;;14.43;;
28437;SDS011;15667;52.376;9.708;2023-03-03T06:48:52;44.35;;;15.63;;
28437;SDS011;15667;52.376;9.708;2023-03-03T06:51:34;39.47;;;13.82;;
28437;SDS011;15667;52.376;9.708;2023-03-03T06:54:19;36.90;;;13.93;;
28437;SDS011;15667;52.376;9.708;2023-03-03T06:56:51;46.80;;;14.45;;
28437;SDS011;15667;52.376;9.708;2023-03-03T06:59:22;48.38;;;15.18;;
28437;SDS011;15667;52.376;9.708;2023-03-03T07:01:48;47.03;;;16.40;;
28437;SDS011;15667;52.376;9.708;2023-03-03T07:06:46;48.47;;;16.40;;
28437;SDS011;15667;52.376;9.708;2023-03-03T07:09:19;50.05;;;16.52;;
28437;SDS011;15667;52.376;9.708;2023-03-03T07:11:48;48.28;;;16.60;;
28437;SDS011;15667;52.376;9.708;2023-03-03T07:14:15;48.13;;;16.48;;
28437;SDS011;15667;52.376;9.708;2023-03-03T07:16:43;47.00;;;15.85;;
28437;SDS011;15667;52.376;9.708;2023-03-03T07:19:18;49.58;;;17.45;;
28437;SDS011;15667;52.376;9.708;2023-03-03T07:21:47;47.78;;;15.55;;
28437;SDS011;15667;52.376;9.708;2023-03-03T07:24:24;46.60;;;16.17;;
28437;SDS011;15667;52.376;9.708;2023-03-03T07:29:48;44.75;;;14.48;;
28437;SDS011;15667;52.376;9.708;2023-03-03T07:32:26;34.58;;;13.00;;
28437;SDS011;15667;52.376;9.708;2023-03-03T07:35:34;34.25;;;12.25;;
28437;SDS011;15667;52.376;9.708;2023-03-03T07:40:53;31.77;;;12.30;;
28437;SDS011;15667;52.376;9.708;2023-03-03T07:43:24;34.45;;;12.13;;
28437;SDS011;15667;52.376;9.708;2023-03-03T07:45:56;32.92;;;13.05;;
28437;SDS011;15667;52.376;9.708;2023-03-03T07:48:36;35.58;;;12.27;;
28437;SDS011;15667;52.376;9.708;2023-03-03T07:51:10;30.30;;;11.75;;
28437;SDS011;15667;52.376;9.708;2023-03-03T07:53:43;38.25;;;14.18;;
28437;SDS011;15667;52.376;9.708;2023-03-03T07:56:26;38.95;;;13.73;;
28437;SDS011;15667;52.376;9.708;2023-03-03T07:58:54;51.97;;;17.92;;
28437;SDS011;15667;52.376;9.708;2023-03-03T08:03:56;56.20;;;19.80;;
28437;SDS011;15667;52.376;9.708;2023-03-03T08:11:34;58.15;;;19.38;;
28437;SDS011;15667;52.376;9.708;2023-03-03T08:14:28;58.47;;;18.95;;
28437;SDS011;15667;52.376;9.708;2023-03-03T08:16:55;56.45;;;18.67;;
28437;SDS011;15667;52.376;9.708;2023-03-03T08:19:22;51.60;;;18.33;;
28437;SDS011;15667;52.376;9.708;2023-03-03T08:21:48;51.97;;;18.73;;
28437;SDS011;15667;52.376;9.708;2023-03-03T08:24:14;59.30;;;20.23;;
28437;SDS011;15667;52.376;9.708;2023-03-03T08:26:42;58.58;;;19.33;;
28437;SDS011;15667;52.376;9.708;2023-03-03T08:29:08;55.55;;;19.40;;
28437;SDS011;15667;52.376;9.708;2023-03-03T08:31:35;60.28;;;20.45;;
28437;SDS011;15667;52.376;9.708;2023-03-03T08:34:01;62.30;;;21.67;;
28437;SDS011;15667;52.376;9.708;2023-03-03T08:36:28;64.88;;;20.95;;
28437;SDS011;15667;52.376;9.708;2023-03-03T08:38:54;67.10;;;20.90;;
28437;SDS011;15667;52.376;9.708;2023-03-03T08:41:19;68.32;;;21.40;;
28437;SDS011;15667;52.376;9.708;2023-03-03T08:43:45;57.65;;;19.65;;
28437;SDS011;15667;52.376;9.708;2023-03-03T08:46:10;63.15;;;20.75;;
28437;SDS011;15667;52.376;9.708;2023-03-03T08:48:36;67.32;;;22.02;;
28437;SDS011;15667;52.376;9.708;2023-03-03T08:51:02;65.28;;;20.80;;
28437;SDS011;15667;52.376;9.708;2023-03-03T08:53:28;64.85;;;22.20;;
28437;SDS011;15667;52.376;9.708;2023-03-03T08:55:54;63.22;;;20.67;;
28437;SDS011;15667;52.376;9.708;2023-03-03T08:58:20;68.03;;;22.13;;
28437;SDS011;15667;52.376;9.708;2023-03-03T09:00:46;68.18;;;22.52;;
28437;SDS011;15667;52.376;9.708;2023-03-03T09:03:11;68.63;;;23.15;;
28437;SDS011;15667;52.376;9.708;2023-03-03T09:05:40;74.40;;;23.50;;
28437;SDS011;15667;52.376;9.708;2023-03-03T09:08:06;64.93;;;21.95;;
28437;SDS011;15667;52.376;9.708;2023-03-03T09:10:33;66.80;;;21.70;;
28437;SDS011;15667;52.376;9.708;2023-03-03T09:13:20;67.72;;;22.23;;
28437;SDS011;15667;52.376;9.708;2023-03-03T09:15:46;69.30;;;21.67;;
28437;SDS011;15667;52.376;9.708;2023-03-03T09:18:20;68.95;;;23.17;;
28437;SDS011;15667;52.376;9.708;2023-03-03T09:20:52;62.30;;;21.77;;
28437;SDS011;15667;52.376;9.708;2023-03-03T09:23:29;61.05;;;19.52;;
28437;SDS011;15667;52.376;9.708;2023-03-03T09:26:05;54.83;;;20.48;;
28437;SDS011;15667;52.376;9.708;2023-03-03T09:28:50;64.00;;;21.90;;
28437;SDS011;15667;52.376;9.708;2023-03-03T09:31:35;60.75;;;20.70;;
28437;SDS011;15667;52.376;9.708;2023-03-03T09:34:19;63.45;;;21.90;;
28437;SDS011;15667;52.376;9.708;2023-03-03T09:37:00;63.72;;;21.80;;
28437;SDS011;15667;52.376;9.708;2023-03-03T09:39:27;70.63;;;22.40;;
28437;SDS011;15667;52.376;9.708;2023-03-03T09:42:03;61.03;;;21.10;;
28437;SDS011;15667;52.376;9.708;2023-03-03T09:47:18;57.45;;;19.52;;
28437;SDS011;15667;52.376;9.708;2023-03-03T09:53:01;54.45;;;19.33;;
28437;SDS011;15667;52.376;9.708;2023-03-03T09:55:36;61.25;;;20.40;;
28437;SDS011;15667;52.376;9.708;2023-03-03T10:00:50;64.63;;;21.92;;
28437;SDS011;15667;52.376;9.708;2023-03-03T10:06:30;64.28;;;22.00;;
28437;SDS011;15667;52.376;9.708;2023-03-03T10:09:09;76.95;;;23.95;;
28437;SDS011;15667;52.376;9.708;2023-03-03T10:25:52;61.58;;;20.83;;
28437;SDS011;15667;52.376;9.708;2023-03-03T10:31:22;58.25;;;20.35;;
28437;SDS011;15667;52.376;9.708;2023-03-03T10:36:52;57.28;;;21.02;;
28437;SDS011;15667;52.376;9.708;2023-03-03T10:44:51;50.10;;;17.83;;
28437;SDS011;15667;52.376;9.708;2023-03-03T10:52:54;59.40;;;21.77;;
28437;SDS011;15667;52.376;9.708;2023-03-03T10:58:33;61.40;;;21.83;;
28437;SDS011;15667;52.376;9.708;2023-03-03T11:01:56;56.70;;;19.13;;
28437;SDS011;15667;52.376;9.708;2023-03-03T11:09:36;43.38;;;14.82;;
28437;SDS011;15667;52.376;9.708;2023-03-03T11:17:45;46.63;;;15.60;;
28437;SDS011;15667;52.376;9.708;2023-03-03T11:31:52;43.03;;;14.43;;
28437;SDS011;15667;52.376;9.708;2023-03-03T11:37:21;57.42;;;19.70;;
28437;SDS011;15667;52.376;9.708;2023-03-03T11:40:03;54.40;;;18.50;;
28437;SDS011;15667;52.376;9.708;2023-03-03T11:42:48;54.38;;;18.30;;
28437;SDS011;15667;52.376;9.708;2023-03-03T11:45:33;56.58;;;18.33;;
28437;SDS011;15667;52.376;9.708;2023-03-03T11:51:02;54.75;;;17.75;;
28437;SDS011;15667;52.376;9.708;2023-03-03T12:01:59;57.13;;;18.17;;
28437;SDS011;15667;52.376;9.708;2023-03-03T12:04:36;54.63;;;16.90;;
28437;SDS011;15667;52.376;9.708;2023-03-03T12:13:02;51.60;;;17.05;;
28437;SDS011;15667;52.376;9.708;2023-03-03T12:37:53;54.22;;;17.77;;
28437;SDS011;15667;52.376;9.708;2023-03-03T12:40:48;53.13;;;16.58;;
28437;SDS011;15667;52.376;9.708;2023-03-03T12:46:18;52.90;;;16.15;;
28437;SDS011;15667;52.376;9.708;2023-03-03T12:48:51;52.38;;;17.10;;
28437;SDS011;15667;52.376;9.708;2023-03-03T12:51:24;52.60;;;16.65;;
28437;SDS011;15667;52.376;9.708;2023-03-03T13:04:47;48.90;;;16.23;;
28437;SDS011;15667;52.376;9.708;2023-03-03T13:10:34;47.13;;;15.40;;
28437;SDS011;15667;52.376;9.708;2023-03-03T13:13:10;48.38;;;15.70;;
28437;SDS011;15667;52.376;9.708;2023-03-03T13:15:44;53.88;;;16.30;;
28437;SDS011;15667;52.376;9.708;2023-03-03T13:20:58;48.00;;;16.17;;
28437;SDS011;15667;52.376;9.708;2023-03-03T13:24:27;45.63;;;16.13;;
28437;SDS011;15667;52.376;9.708;2023-03-03T13:27:03;50.63;;;16.73;;
28437;SDS011;15667;52.376;9.708;2023-03-03T13:34:50;53.20;;;17.73;;
28437;SDS011;15667;52.376;9.708;2023-03-03T13:37:28;50.47;;;15.85;;
28437;SDS011;15667;52.376;9.708;2023-03-03T13:40:09;52.25;;;16.83;;
28437;SDS011;15667;52.376;9.708;2023-03-03T13:43:05;50.83;;;16.35;;
28437;SDS011;15667;52.376;9.708;2023-03-03T13:51:59;59.00;;;18.20;;
28437;SDS011;15667;52.376;9.708;2023-03-03T14:11:24;45.25;;;15.15;;
28437;SDS011;15667;52.376;9.708;2023-03-03T14:16:53;48.63;;;15.93;;
28437;SDS011;15667;52.376;9.708;2023-03-03T14:22:22;48.25;;;15.88;;
28437;SDS011;15667;52.376;9.708;2023-03-03T14:25:03;47.08;;;15.80;;
28437;SDS011;15667;52.376;9.708;2023-03-03T14:27:59;52.33;;;16.10;;
28437;SDS011;15667;52.376;9.708;2023-03-03T14:30:41;57.05;;;17.50;;
28437;SDS011;15667;52.376;9.708;2023-03-03T14:35:35;61.72;;;20.30;;
28437;SDS011;15667;52.376;9.708;2023-03-03T14:38:19;48.33;;;16.23;;
28437;SDS011;15667;52.376;9.708;2023-03-03T14:41:12;48.15;;;15.57;;
28437;SDS011;15667;52.376;9.708;2023-03-03T14:48:55;44.20;;;15.20;;
28437;SDS011;15667;52.376;9.708;2023-03-03T14:51:28;49.33;;;14.60;;
28437;SDS011;15667;52.376;9.708;2023-03-03T14:54:36;45.67;;;14.93;;
28437;SDS011;15667;52.376;9.708;2023-03-03T15:05:20;57.38;;;18.70;;
28437;SDS011;15667;52.376;9.708;2023-03-03T15:07:50;69.32;;;19.70;;
28437;SDS011;15667;52.376;9.708;2023-03-03T15:11:10;67.90;;;21.05;;
28437;SDS011;15667;52.376;9.708;2023-03-03T15:13:38;66.63;;;21.40;;
28437;SDS011;15667;52.376;9.708;2023-03-03T15:16:15;87.05;;;26.63;;
28437;SDS011;15667;52.376;9.708;2023-03-03T15:18:54;86.57;;;26.13;;
28437;SDS011;15667;52.376;9.708;2023-03-03T15:21:40;82.28;;;24.88;;
28437;SDS011;15667;52.376;9.708;2023-03-03T15:27:20;81.28;;;24.67;;
28437;SDS011;15667;52.376;9.708;2023-03-03T15:32:42;70.70;;;23.08;;
28437;SDS011;15667;52.376;9.708;2023-03-03T15:35:33;78.13;;;25.25;;
28437;SDS011;15667;52.376;9.708;2023-03-03T15:43:38;85.63;;;27.73;;
28437;SDS011;15667;52.376;9.708;2023-03-03T15:49:10;87.70;;;26.23;;
28437;SDS011;15667;52.376;9.708;2023-03-03T15:57:20;91.15;;;28.50;;
28437;SDS011;15667;52.376;9.708;2023-03-03T16:02:42;89.22;;;30.10;;
28437;SDS011;15667;52.376;9.708;2023-03-03T16:08:16;92.22;;;29.63;;
28437;SDS011;15667;52.376;9.708;2023-03-03T16:27:31;101.35;;;33.25;;
28437;SDS011;15667;52.376;9.708;2023-03-03T16:30:31;104.30;;;33.67;;
28437;SDS011;15667;52.376;9.708;2023-03-03T16:33:13;95.13;;;30.05;;
28437;SDS011;15667;52.376;9.708;2023-03-03T16:35:51;92.88;;;30.38;;
28437;SDS011;15667;52.376;9.708;2023-03-03T16:41:00;84.15;;;27.90;;
28437;SDS011;15667;52.376;9.708;2023-03-03T16:44:07;84.35;;;26.65;;
28437;SDS011;15667;52.376;9.708;2023-03-03T16:46:41;76.50;;;26.00;;
28437;SDS011;15667;52.376;9.708;2023-03-03T16:55:29;72.47;;;23.52;;
28437;SDS011;15667;52.376;9.708;2023-03-03T17:09:32;75.88;;;24.88;;
28437;SDS011;15667;52.376;9.708;2023-03-03T17:20:59;70.68;;;24.90;;
28437;SDS011;15667;52.376;9.708;2023-03-03T17:29:19;63.65;;;21.90;;
28437;SDS011;15667;52.376;9.708;2023-03-03T17:37:17;62.20;;;22.25;;
28437;SDS011;15667;52.376;9.708;2023-03-03T17:45:19;63.78;;;21.65;;
28437;SDS011;15667;52.376;9.708;2023-03-03T17:58:46;59.00;;;19.95;;
28437;SDS011;15667;52.376;9.708;2023-03-03T18:01:44;97.18;;;32.05;;
28437;SDS011;15667;52.376;9.708;2023-03-03T18:35:33;43.30;;;16.40;;
28437;SDS011;15667;52.376;9.708;2023-03-03T18:46:55;43.25;;;17.02;;
28437;SDS011;15667;52.376;9.708;2023-03-03T18:52:30;50.60;;;17.33;;
28437;SDS011;15667;52.376;9.708;2023-03-03T18:57:33;41.20;;;15.45;;
28437;SDS011;15667;52.376;9.708;2023-03-03T19:00:08;44.30;;;15.75;;
28437;SDS011;15667;52.376;9.708;2023-03-03T19:02:54;42.97;;;15.43;;
28437;SDS011;15667;52.376;9.708;2023-03-03T19:05:47;42.90;;;15.23;;
28437;SDS011;15667;52.376;9.708;2023-03-03T19:08:27;44.85;;;15.40;;
28437;SDS011;15667;52.376;9.708;2023-03-03T19:17:45;39.92;;;15.70;;
28437;SDS011;15667;52.376;9.708;2023-03-03T19:22:51;37.67;;;14.80;;
28437;SDS011;15667;52.376;9.708;2023-03-03T19:25:27;41.25;;;15.07;;
28437;SDS011;15667;52.376;9.708;2023-03-03T19:33:07;35.90;;;13.48;;
28437;SDS011;15667;52.376;9.708;2023-03-03T19:39:22;41.30;;;14.93;;
28437;SDS011;15667;52.376;9.708;2023-03-03T19:48:17;35.72;;;14.15;;
28437;SDS011;15667;52.376;9.708;2023-03-03T19:56:42;33.20;;;13.02;;
28437;SDS011;15667;52.376;9.708;2023-03-03T20:07:17;34.33;;;12.50;;
28437;SDS011;15667;52.376;9.708;2023-03-03T20:12:51;30.98;;;12.48;;
28437;SDS011;15667;52.376;9.708;2023-03-03T20:26:33;32.83;;;12.38;;
28437;SDS011;15667;52.376;9.708;2023-03-03T20:35:22;33.35;;;11.98;;
28437;SDS011;15667;52.376;9.708;2023-03-03T20:41:13;24.35;;;10.60;;
28437;SDS011;15667;52.376;9.708;2023-03-03T20:46:54;28.35;;;10.63;;
28437;SDS011;15667;52.376;9.708;2023-03-03T20:55:32;24.05;;;9.75;;
28437;SDS011;15667;52.376;9.708;2023-03-03T21:01:15;27.08;;;10.15;;
28437;SDS011;15667;52.376;9.708;2023-03-03T21:04:18;25.95;;;8.95;;
28437;SDS011;15667;52.376;9.708;2023-03-03T21:06:46;25.75;;;9.52;;
28437;SDS011;15667;52.376;9.708;2023-03-03T21:12:09;20.85;;;8.45;;
28437;SDS011;15667;52.376;9.708;2023-03-03T21:14:59;29.08;;;8.23;;
28437;SDS011;15667;52.376;9.708;2023-03-03T21:17:45;23.25;;;8.07;;
28437;SDS011;15667;52.376;9.708;2023-03-03T21:20:17;26.45;;;8.32;;
28437;SDS011;15667;52.376;9.708;2023-03-03T21:22:49;23.10;;;8.40;;
28437;SDS011;15667;52.376;9.708;2023-03-03T21:33:42;18.83;;;7.22;;
28437;SDS011;15667;52.376;9.708;2023-03-03T21:36:24;22.48;;;7.43;;
28437;SDS011;15667;52.376;9.708;2023-03-03T21:39:21;19.77;;;6.32;;
28437;SDS011;15667;52.376;9.708;2023-03-03T21:42:39;19.30;;;7.18;;
28437;SDS011;15667;52.376;9.708;2023-03-03T21:44:38;19.38;;;6.30;;
28437;SDS011;15667;52.376;9.708;2023-03-03T21:47:05;24.55;;;6.75;;
28437;SDS011;15667;52.376;9.708;2023-03-03T21:49:33;25.48;;;6.80;;
28437;SDS011;15667;52.376;9.708;2023-03-03T21:51:59;26.55;;;6.22;;
28437;SDS011;15667;52.376;9.708;2023-03-03T21:54:25;28.02;;;6.63;;
28437;SDS011;15667;52.376;9.708;2023-03-03T21:56:51;27.65;;;7.00;;
28437;SDS011;15667;52.376;9.708;2023-03-03T21:59:17;30.70;;;6.88;;
28437;SDS011;15667;52.376;9.708;2023-03-03T22:01:43;22.42;;;6.07;;
28437;SDS011;15667;52.376;9.708;2023-03-03T22:04:09;20.38;;;6.07;;
28437;SDS011;15667;52.376;9.708;2023-03-03T22:06:35;24.15;;;5.80;;
28437;SDS011;15667;52.376;9.708;2023-03-03T22:09:02;25.90;;;5.40;;
28437;SDS011;15667;52.376;9.708;2023-03-03T22:11:28;25.25;;;5.13;;
28437;SDS011;15667;52.376;9.708;2023-03-03T22:13:54;24.02;;;5.43;;